Downstream station:
SHEF ID: EMPK1 COTTONWOOD R AT EMPORIA
STATION TYPE:
STAGE RIV-FLOW BAT-LOAD
ft cfs volt
Ccp-Rev Ccp-Rev Ccp-Rev
(US/Central)
04/01 00:00 8.41 2882 12.57
04/01 01:00 8.25 2784 12.49
04/01 02:00 8.04 2658 12.49
04/01 03:00 7.89 2569 12.49
04/01 04:00 7.71 2464 12.41
04/01 05:00 7.56 2377 12.41
04/01 06:00 7.41 2292 12.41
04/01 07:00 7.28 2219 12.33
04/01 08:00 7.14 2141 12.33
04/01 09:00 7.01 2070 12.81
04/01 10:00 6.89 2006 12.97
04/01 11:00 6.78 1947 13.21
04/01 12:00 6.69 1899 13.53
04/01 13:00 6.57 1837 14.00
04/01 14:00 6.50 1801 13.92
04/01 15:00 6.40 1749 14.00
04/01 16:00 6.33 1714 13.92
04/01 17:00 6.26 1678 13.60
04/01 18:00 6.17 1634 13.84
04/01 19:00 6.10 1599 13.68
04/01 20:00 6.03 1565 12.81
04/01 21:00 5.96 1531 12.57
04/01 22:00 5.92 1511 12.57
04/01 23:00 5.87 1487 12.57